createdAt,value
2022-08-26T00:00:16.615Z,37.74
2022-08-26T00:03:08.470Z,37.64
2022-08-26T00:05:42.055Z,37.91
2022-08-26T00:08:16.973Z,38.04
2022-08-26T00:10:49.117Z,38.12
2022-08-26T00:13:21.386Z,38.11
2022-08-26T00:15:53.695Z,38.19
2022-08-26T00:18:25.968Z,38.14
2022-08-26T00:20:58.578Z,38.20
2022-08-26T00:23:31.249Z,38.16
2022-08-26T00:26:05.658Z,38.20
2022-08-26T00:28:41.599Z,38.62
2022-08-26T00:31:13.879Z,38.51
2022-08-26T00:33:46.219Z,38.57
2022-08-26T00:36:20.055Z,38.90
2022-08-26T00:38:53.135Z,38.94
2022-08-26T00:41:25.304Z,39.26
2022-08-26T00:43:58.229Z,39.21
2022-08-26T00:46:36.068Z,39.12
2022-08-26T00:49:14.036Z,39.22
2022-08-26T00:51:50.796Z,39.44
2022-08-26T00:54:26.885Z,39.26
2022-08-26T00:57:02.591Z,39.55
2022-08-26T00:59:38.904Z,39.59
2022-08-26T01:02:20.292Z,39.95
2022-08-26T01:04:56.476Z,39.84
2022-08-26T01:07:31.220Z,39.89
2022-08-26T01:10:07.183Z,40.09
2022-08-26T01:12:44.333Z,40.05
2022-08-26T01:15:21.671Z,40.23
2022-08-26T01:17:54.536Z,40.29
2022-08-26T01:20:32.984Z,40.28
2022-08-26T01:23:08.668Z,40.30
2022-08-26T01:25:46.686Z,40.28
2022-08-26T01:28:23.246Z,40.46
2022-08-26T01:30:56.890Z,40.05
2022-08-26T01:33:42.456Z,40.32
2022-08-26T01:36:16.403Z,40.18
2022-08-26T01:38:48.771Z,40.42
2022-08-26T01:41:27.437Z,40.31
2022-08-26T01:44:03.343Z,40.61
2022-08-26T01:46:35.971Z,40.50
2022-08-26T01:49:10.394Z,40.45
2022-08-26T01:51:44.558Z,40.60
2022-08-26T01:54:17.257Z,40.62
2022-08-26T01:56:54.067Z,40.59
2022-08-26T01:59:26.861Z,40.55
2022-08-26T02:01:59.631Z,40.51
2022-08-26T02:04:37.863Z,40.55
2022-08-26T02:07:11.805Z,40.53
2022-08-26T02:09:45.258Z,40.55
2022-08-26T02:12:19.681Z,40.43
2022-08-26T02:14:55.008Z,40.31
2022-08-26T02:17:33.422Z,40.38
2022-08-26T02:20:13.329Z,40.36
2022-08-26T02:22:47.623Z,40.51
2022-08-26T02:25:25.919Z,40.27
2022-08-26T02:27:58.389Z,40.11
2022-08-26T02:30:32.929Z,40.40
2022-08-26T02:33:05.647Z,40.22
2022-08-26T02:35:40.749Z,40.28
2022-08-26T02:38:13.077Z,40.39
2022-08-26T02:40:45.353Z,40.27
2022-08-26T02:43:23.821Z,40.34
2022-08-26T02:46:03.821Z,40.17
2022-08-26T02:48:36.761Z,40.32
2022-08-26T02:51:09.301Z,40.05
2022-08-26T02:53:41.435Z,40.28
2022-08-26T02:56:14.806Z,40.15
2022-08-26T02:58:47.165Z,40.22
2022-08-26T03:01:28.530Z,40.14
2022-08-26T03:04:01.699Z,40.20
2022-08-26T03:06:33.927Z,40.27
2022-08-26T03:09:07.290Z,40.25
2022-08-26T03:11:40.335Z,40.02
2022-08-26T03:14:13.328Z,40.04
2022-08-26T03:16:48.571Z,40.00
2022-08-26T03:19:19.358Z,39.98
2022-08-26T03:21:52.546Z,40.04
2022-08-26T03:24:25.535Z,40.04
2022-08-26T03:26:58.391Z,40.00
2022-08-26T03:29:50.401Z,39.99
2022-08-26T03:32:22.779Z,40.08
2022-08-26T03:34:59.198Z,39.81
2022-08-26T03:37:32.182Z,39.90
2022-08-26T03:40:04.917Z,39.86
2022-08-26T03:42:39.078Z,39.85
2022-08-26T03:45:13.468Z,39.69
2022-08-26T03:47:48.505Z,39.81
2022-08-26T03:50:24.379Z,39.83
2022-08-26T03:52:58.096Z,39.81
2022-08-26T03:55:32.840Z,39.82
2022-08-26T03:58:05.505Z,39.81
2022-08-26T04:00:37.606Z,39.70
2022-08-26T04:03:14.729Z,39.68
2022-08-26T04:05:54.453Z,39.70
2022-08-26T04:08:26.668Z,39.64
2022-08-26T04:11:01.359Z,39.64
2022-08-26T04:13:33.810Z,39.71
2022-08-26T04:16:06.643Z,39.64
2022-08-26T04:18:44.471Z,39.71
2022-08-26T04:21:19.277Z,39.67
2022-08-26T04:23:53.353Z,39.54
2022-08-26T04:26:26.273Z,39.64
2022-08-26T04:28:58.458Z,39.69
2022-08-26T04:31:31.782Z,39.59
2022-08-26T04:34:04.689Z,39.76
2022-08-26T04:36:38.179Z,39.68
2022-08-26T04:39:12.230Z,39.61
2022-08-26T04:41:44.748Z,39.90
2022-08-26T04:44:17.517Z,39.86
2022-08-26T04:46:49.839Z,40.05
2022-08-26T04:49:22.143Z,39.87
2022-08-26T04:51:54.492Z,39.81
2022-08-26T04:54:27.445Z,39.78
2022-08-26T04:57:00.660Z,39.90
2022-08-26T04:59:38.470Z,39.94
2022-08-26T05:02:11.958Z,39.84
2022-08-26T05:04:44.171Z,39.84
2022-08-26T05:07:17.695Z,39.87
2022-08-26T05:09:49.879Z,39.67
2022-08-26T05:12:22.124Z,39.67
2022-08-26T05:14:54.322Z,39.59
2022-08-26T05:17:27.327Z,39.66
2022-08-26T05:19:59.501Z,39.62
2022-08-26T05:22:31.773Z,39.67
2022-08-26T05:25:04.377Z,39.59
2022-08-26T05:27:36.764Z,39.41
2022-08-26T05:30:11.404Z,39.24
2022-08-26T05:32:43.905Z,39.60
2022-08-26T05:35:16.348Z,39.52
2022-08-26T05:37:49.283Z,39.28
2022-08-26T05:40:21.723Z,39.43
2022-08-26T05:42:54.168Z,39.24
2022-08-26T05:45:29.446Z,39.14
2022-08-26T05:48:01.661Z,39.11
2022-08-26T05:50:37.178Z,39.08
2022-08-26T05:53:12.609Z,39.11
2022-08-26T05:55:47.396Z,38.81
2022-08-26T05:58:21.157Z,39.06
2022-08-26T06:01:02.977Z,38.67
2022-08-26T06:03:39.488Z,38.46
2022-08-26T06:06:11.748Z,38.32
2022-08-26T06:08:44.538Z,38.25
2022-08-26T06:11:19.165Z,38.05
2022-08-26T06:13:53.506Z,37.85
2022-08-26T06:16:26.618Z,37.66
2022-08-26T06:18:58.776Z,37.48
2022-08-26T06:21:35.044Z,37.45
2022-08-26T06:24:28.038Z,37.25
2022-08-26T06:27:02.510Z,36.99
2022-08-26T06:29:36.250Z,36.71
2022-08-26T06:32:10.933Z,36.43
2022-08-26T06:34:43.166Z,36.28
2022-08-26T06:37:15.409Z,36.00
2022-08-26T06:39:48.103Z,35.83
2022-08-26T06:42:23.691Z,35.65
2022-08-26T06:44:55.962Z,35.35
2022-08-26T06:47:29.386Z,35.16
2022-08-26T06:50:01.768Z,34.96
2022-08-26T06:52:33.897Z,34.87
2022-08-26T06:55:07.801Z,34.36
2022-08-26T06:57:41.243Z,34.24
2022-08-26T07:00:16.527Z,34.02
2022-08-26T07:02:52.516Z,33.60
2022-08-26T07:05:25.853Z,33.26
2022-08-26T07:07:58.191Z,32.79
2022-08-26T07:10:30.466Z,32.73
2022-08-26T07:13:02.647Z,32.27
2022-08-26T07:15:35.917Z,31.92
2022-08-26T07:18:09.266Z,31.74
2022-08-26T07:20:43.514Z,31.26
2022-08-26T07:23:15.847Z,31.37
2022-08-26T07:25:49.583Z,30.70
2022-08-26T07:28:22.604Z,30.28
2022-08-26T07:30:55.195Z,30.18
2022-08-26T07:33:27.380Z,29.96
2022-08-26T07:35:59.522Z,29.79
2022-08-26T07:38:33.955Z,29.21
2022-08-26T07:41:06.892Z,29.10
2022-08-26T07:43:41.324Z,28.76
2022-08-26T07:46:18.629Z,28.49
2022-08-26T07:48:59.778Z,28.23
2022-08-26T07:51:31.976Z,28.01
2022-08-26T07:54:04.242Z,27.84
2022-08-26T07:56:36.534Z,27.44
2022-08-26T07:59:13.997Z,27.39
2022-08-26T08:01:47.405Z,27.07
2022-08-26T08:04:26.047Z,26.56
2022-08-26T08:06:58.886Z,26.43
2022-08-26T08:09:31.185Z,26.32
2022-08-26T08:12:03.414Z,26.09
2022-08-26T08:14:37.501Z,25.73
2022-08-26T08:17:09.807Z,25.47
2022-08-26T08:19:42.161Z,25.37
2022-08-26T08:22:17.488Z,25.12
2022-08-26T08:24:53.008Z,24.95
2022-08-26T08:27:25.974Z,24.74
2022-08-26T08:29:58.275Z,24.42
2022-08-26T08:32:31.117Z,24.22
2022-08-26T08:35:11.045Z,23.94
2022-08-26T08:37:45.007Z,23.84
2022-08-26T08:40:18.913Z,23.62
2022-08-26T08:42:57.884Z,23.62
2022-08-26T08:45:37.358Z,23.33
2022-08-26T08:48:16.643Z,23.18
2022-08-26T08:50:50.755Z,23.02
2022-08-26T08:53:31.764Z,22.82
2022-08-26T08:56:13.535Z,22.45
2022-08-26T08:58:57.339Z,22.49
2022-08-26T09:01:39.568Z,22.05
2022-08-26T09:04:41.378Z,22.07
2022-08-26T09:07:19.084Z,21.92
2022-08-26T09:09:55.813Z,21.73
2022-08-26T09:12:32.329Z,21.74
2022-08-26T09:15:09.052Z,21.84
2022-08-26T09:17:52.282Z,21.76
2022-08-26T09:20:36.249Z,21.30
2022-08-26T09:23:10.597Z,21.16
2022-08-26T09:25:51.894Z,21.21
2022-08-26T09:28:26.544Z,20.73
2022-08-26T09:31:14.275Z,20.78
2022-08-26T09:33:47.054Z,20.58
2022-08-26T09:36:26.430Z,20.52
2022-08-26T09:38:58.845Z,20.35
2022-08-26T09:41:33.924Z,20.19
2022-08-26T09:44:16.545Z,20.24
2022-08-26T09:46:55.595Z,20.00
2022-08-26T09:49:36.389Z,20.14
2022-08-26T09:52:17.136Z,20.00
2022-08-26T09:55:02.476Z,20.10
2022-08-26T09:57:37.320Z,20.01
2022-08-26T10:00:27.253Z,19.80
2022-08-26T10:03:00.901Z,19.58
2022-08-26T10:05:38.484Z,19.53
2022-08-26T10:08:33.111Z,19.45
2022-08-26T10:11:17.002Z,19.42
2022-08-26T10:13:55.846Z,19.37
2022-08-26T10:16:33.334Z,19.38
2022-08-26T10:19:13.452Z,19.23
2022-08-26T10:21:55.252Z,19.26
2022-08-26T10:24:32.924Z,19.23
2022-08-26T10:27:12.324Z,19.02
2022-08-26T10:29:48.249Z,19.03
2022-08-26T10:32:26.743Z,19.00
2022-08-26T10:35:00.242Z,18.95
2022-08-26T10:37:37.686Z,18.74
2022-08-26T10:40:15.863Z,18.71
2022-08-26T10:42:52.956Z,18.76
2022-08-26T10:45:29.723Z,18.67
2022-08-26T10:48:06.311Z,18.58
2022-08-26T10:50:41.857Z,18.54
2022-08-26T10:53:19.154Z,18.61
2022-08-26T10:56:06.596Z,18.59
2022-08-26T10:59:03.213Z,18.50
2022-08-26T11:01:50.786Z,18.45
2022-08-26T11:04:48.544Z,18.41
2022-08-26T11:07:39.283Z,18.50
2022-08-26T11:10:34.315Z,18.51
2022-08-26T11:13:08.304Z,18.66
2022-08-26T11:16:11.802Z,18.63
2022-08-26T11:18:47.112Z,18.60
2022-08-26T11:22:07.148Z,18.47
2022-08-26T11:25:00.610Z,18.76
2022-08-26T11:28:05.377Z,18.65
2022-08-26T11:30:56.850Z,18.72
2022-08-26T11:34:00.262Z,18.66
2022-08-26T11:37:04.089Z,18.88
2022-08-26T11:39:54.080Z,18.63
2022-08-26T11:42:37.081Z,18.65
2022-08-26T11:45:29.550Z,19.12
2022-08-26T11:48:15.241Z,19.06
2022-08-26T11:50:57.878Z,18.78
2022-08-26T11:53:32.680Z,18.96
2022-08-26T11:56:10.431Z,19.02
2022-08-26T11:58:46.730Z,18.90
2022-08-26T12:01:31.345Z,19.18
2022-08-26T12:04:04.945Z,19.15
2022-08-26T12:06:45.091Z,19.00
2022-08-26T12:09:24.847Z,19.25
2022-08-26T12:12:13.353Z,19.15
2022-08-26T12:14:46.759Z,19.45
2022-08-26T12:17:27.180Z,19.37
2022-08-26T12:19:59.317Z,19.61
2022-08-26T12:22:34.624Z,19.43
2022-08-26T12:25:11.430Z,19.50
2022-08-26T12:27:45.455Z,19.44
2022-08-26T12:30:22.535Z,19.43
2022-08-26T12:33:22.336Z,19.55
2022-08-26T12:35:57.064Z,19.41
2022-08-26T12:38:31.090Z,19.44
2022-08-26T12:41:03.574Z,19.57
2022-08-26T12:43:46.634Z,19.76
2022-08-26T12:46:26.999Z,19.73
2022-08-26T12:49:01.439Z,19.86
2022-08-26T12:51:42.004Z,19.83
2022-08-26T12:54:17.972Z,19.84
2022-08-26T12:56:50.158Z,19.75
2022-08-26T12:59:26.542Z,19.84
2022-08-26T13:01:58.777Z,19.79
2022-08-26T13:04:41.170Z,20.01
2022-08-26T13:07:21.960Z,20.09
2022-08-26T13:09:56.134Z,20.12
2022-08-26T13:12:33.728Z,20.05
2022-08-26T13:15:08.693Z,20.01
2022-08-26T13:17:41.373Z,20.11
2022-08-26T13:20:13.858Z,20.11
2022-08-26T13:22:46.055Z,20.06
2022-08-26T13:25:26.144Z,20.02
2022-08-26T13:27:58.477Z,20.22
2022-08-26T13:30:30.724Z,20.15
2022-08-26T13:33:04.094Z,20.09
2022-08-26T13:35:36.238Z,20.09
2022-08-26T13:38:33.349Z,20.20
2022-08-26T13:41:06.686Z,20.21
2022-08-26T13:43:38.856Z,20.42
2022-08-26T13:46:11.132Z,20.39
2022-08-26T13:48:43.370Z,20.50
2022-08-26T13:51:18.781Z,20.55
2022-08-26T13:53:50.969Z,20.70
2022-08-26T13:56:23.232Z,20.69
2022-08-26T13:58:55.406Z,20.70
2022-08-26T14:01:29.364Z,20.95
2022-08-26T14:04:02.759Z,20.93
2022-08-26T14:06:34.956Z,21.18
2022-08-26T14:09:07.389Z,21.02
2022-08-26T14:11:54.647Z,21.24
2022-08-26T14:14:27.409Z,21.28
2022-08-26T14:17:00.528Z,21.43
2022-08-26T14:19:34.320Z,21.45
2022-08-26T14:22:07.068Z,21.51
2022-08-26T14:24:39.294Z,21.58
2022-08-26T14:27:11.549Z,21.47
2022-08-26T14:29:44.136Z,21.44
2022-08-26T14:32:23.525Z,21.61
2022-08-26T14:34:55.996Z,21.74
2022-08-26T14:37:28.483Z,21.62
2022-08-26T14:40:00.705Z,21.73
2022-08-26T14:42:34.672Z,21.82
2022-08-26T14:45:11.558Z,21.88
2022-08-26T14:47:43.745Z,21.92
2022-08-26T14:50:17.638Z,21.80
2022-08-26T14:53:07.626Z,21.98
2022-08-26T14:55:43.460Z,22.02
2022-08-26T14:58:15.710Z,22.06
2022-08-26T15:00:47.891Z,22.11
2022-08-26T15:03:20.014Z,22.03
2022-08-26T15:05:52.240Z,22.10
2022-08-26T15:08:24.418Z,22.04
2022-08-26T15:10:56.574Z,22.23
2022-08-26T15:13:28.754Z,22.20
2022-08-26T15:16:00.995Z,22.11
2022-08-26T15:18:33.232Z,22.38
2022-08-26T15:21:07.998Z,22.35
2022-08-26T15:23:40.569Z,22.29
2022-08-26T15:26:13.795Z,22.39
2022-08-26T15:28:46.199Z,22.36
2022-08-26T15:31:20.252Z,22.53
2022-08-26T15:33:52.726Z,22.61
2022-08-26T15:36:24.909Z,22.64
2022-08-26T15:38:57.800Z,22.60
2022-08-26T15:41:30.975Z,22.77
2022-08-26T15:44:09.328Z,22.70
2022-08-26T15:46:42.218Z,22.78
2022-08-26T15:49:18.348Z,22.66
2022-08-26T15:51:51.582Z,22.80
2022-08-26T15:54:25.427Z,22.89
2022-08-26T15:56:59.490Z,22.90
2022-08-26T15:59:32.281Z,23.03
2022-08-26T16:02:05.386Z,23.10
2022-08-26T16:04:38.151Z,23.25
2022-08-26T16:07:10.341Z,23.15
2022-08-26T16:09:42.531Z,23.26
2022-08-26T16:14:54.066Z,23.01
2022-08-26T16:17:26.283Z,23.10
2022-08-26T16:19:59.190Z,23.35
2022-08-26T16:22:31.414Z,23.29
2022-08-26T16:25:07.545Z,23.33
2022-08-26T16:27:39.750Z,23.32
2022-08-26T16:30:16.280Z,23.30
2022-08-26T16:32:49.031Z,23.53
2022-08-26T16:35:21.419Z,23.60
2022-08-26T16:37:56.350Z,23.47
2022-08-26T16:40:26.926Z,23.61
2022-08-26T16:42:59.162Z,23.74
2022-08-26T16:45:31.430Z,23.59
2022-08-26T16:48:04.015Z,23.93
2022-08-26T16:50:36.968Z,23.91
2022-08-26T16:53:16.140Z,23.83
2022-08-26T16:55:50.656Z,23.81
2022-08-26T16:58:22.874Z,24.05
2022-08-26T17:00:55.084Z,24.14
2022-08-26T17:03:27.663Z,24.05
2022-08-26T17:06:00.243Z,24.03
2022-08-26T17:08:32.502Z,24.14
2022-08-26T17:11:04.828Z,24.33
2022-08-26T17:13:39.198Z,24.31
2022-08-26T17:16:14.234Z,24.38
2022-08-26T17:18:44.803Z,24.45
2022-08-26T17:21:16.952Z,24.68
2022-08-26T17:23:49.350Z,24.44
2022-08-26T17:26:21.782Z,24.59
2022-08-26T17:28:54.153Z,24.67
2022-08-26T17:31:27.410Z,24.38
2022-08-26T17:33:59.612Z,24.82
2022-08-26T17:36:31.954Z,24.63
2022-08-26T17:39:04.152Z,24.66
2022-08-26T17:41:36.401Z,24.68
2022-08-26T17:44:08.975Z,25.05
2022-08-26T17:46:41.218Z,24.77
2022-08-26T17:49:13.495Z,25.23
2022-08-26T17:51:45.667Z,25.06
2022-08-26T17:54:18.525Z,25.16
2022-08-26T17:56:50.712Z,25.60
2022-08-26T17:59:22.907Z,25.20
2022-08-26T18:02:02.029Z,25.51
2022-08-26T18:04:34.244Z,25.70
2022-08-26T18:07:06.442Z,25.68
2022-08-26T18:09:38.668Z,25.66
2022-08-26T18:12:11.809Z,25.80
2022-08-26T18:14:44.097Z,26.13
2022-08-26T18:17:19.328Z,26.36
2022-08-26T18:19:51.766Z,26.25
2022-08-26T18:22:24.083Z,26.26
2022-08-26T18:24:58.947Z,26.59
2022-08-26T18:27:31.802Z,26.64
2022-08-26T18:30:04.009Z,26.94
2022-08-26T18:32:36.553Z,26.87
2022-08-26T18:35:10.748Z,26.83
2022-08-26T18:37:44.589Z,27.00
2022-08-26T18:40:18.761Z,27.23
2022-08-26T18:42:54.179Z,27.32
2022-08-26T18:45:26.607Z,27.39
2022-08-26T18:47:58.765Z,27.47
2022-08-26T18:50:31.081Z,27.45
2022-08-26T18:53:03.993Z,27.67
2022-08-26T18:55:36.147Z,27.69
2022-08-26T18:58:08.511Z,27.89
2022-08-26T19:00:43.063Z,27.95
2022-08-26T19:03:17.314Z,28.42
2022-08-26T19:05:51.231Z,28.40
2022-08-26T19:08:23.603Z,28.57
2022-08-26T19:10:55.792Z,28.53
2022-08-26T19:13:28.040Z,28.71
2022-08-26T19:16:00.176Z,28.78
2022-08-26T19:18:32.559Z,28.87
2022-08-26T19:21:07.336Z,28.80
2022-08-26T19:23:39.582Z,28.98
2022-08-26T19:26:12.571Z,29.10
2022-08-26T19:28:45.047Z,29.22
2022-08-26T19:31:17.310Z,29.31
2022-08-26T19:33:49.582Z,29.35
2022-08-26T19:36:24.950Z,29.32
2022-08-26T19:38:57.736Z,29.54
2022-08-26T19:41:37.193Z,29.41
2022-08-26T19:44:13.144Z,29.65
2022-08-26T19:46:45.323Z,29.83
2022-08-26T19:49:17.454Z,29.79
2022-08-26T19:51:49.673Z,29.95
2022-08-26T19:54:22.983Z,30.04
2022-08-26T19:56:55.192Z,29.99
2022-08-26T19:59:27.442Z,30.18
2022-08-26T20:02:01.454Z,30.23
2022-08-26T20:04:34.876Z,30.36
2022-08-26T20:07:07.499Z,30.48
2022-08-26T20:09:39.763Z,30.46
2022-08-26T20:12:12.187Z,30.58
2022-08-26T20:14:44.483Z,30.73
2022-08-26T20:17:17.295Z,30.72
2022-08-26T20:20:06.907Z,30.85
2022-08-26T20:22:59.203Z,31.09
2022-08-26T20:25:32.583Z,31.16
2022-08-26T20:28:05.228Z,31.13
2022-08-26T20:30:37.400Z,31.24
2022-08-26T20:33:09.626Z,31.41
2022-08-26T20:35:41.763Z,31.47
2022-08-26T20:38:15.857Z,31.57
2022-08-26T20:40:51.192Z,31.51
2022-08-26T20:43:26.440Z,31.66
2022-08-26T20:45:58.608Z,31.77
2022-08-26T20:48:31.157Z,31.88
2022-08-26T20:51:04.616Z,31.87
2022-08-26T20:53:36.934Z,32.00
2022-08-26T20:56:11.303Z,32.09
2022-08-26T20:58:44.844Z,32.21
2022-08-26T21:01:23.095Z,32.17
2022-08-26T21:03:55.890Z,32.25
2022-08-26T21:06:28.064Z,32.20
2022-08-26T21:09:00.639Z,32.46
2022-08-26T21:11:33.190Z,32.35
2022-08-26T21:14:06.951Z,32.52
2022-08-26T21:16:49.999Z,32.66
2022-08-26T21:19:22.452Z,32.92
2022-08-26T21:21:54.648Z,32.96
2022-08-26T21:24:26.845Z,33.11
2022-08-26T21:26:59.038Z,33.31
2022-08-26T21:29:31.300Z,33.21
2022-08-26T21:32:03.658Z,33.45
2022-08-26T21:34:36.027Z,33.55
2022-08-26T21:37:08.993Z,33.63
2022-08-26T21:39:48.961Z,33.93
2022-08-26T21:42:21.204Z,33.82
2022-08-26T21:44:54.367Z,34.06
2022-08-26T21:47:26.900Z,34.21
2022-08-26T21:49:59.384Z,34.42
2022-08-26T21:52:31.652Z,34.46
2022-08-26T21:55:08.931Z,34.64
2022-08-26T21:57:41.691Z,34.74
2022-08-26T22:00:17.078Z,34.97
2022-08-26T22:02:50.397Z,34.99
2022-08-26T22:05:22.591Z,35.24
2022-08-26T22:07:54.786Z,34.98
2022-08-26T22:10:26.944Z,35.25
2022-08-26T22:12:59.146Z,35.33
2022-08-26T22:15:33.095Z,35.65
2022-08-26T22:18:06.130Z,35.95
2022-08-26T22:20:38.667Z,35.79
2022-08-26T22:23:11.408Z,36.43
2022-08-26T22:25:43.654Z,36.26
2022-08-26T22:28:15.800Z,36.78
2022-08-26T22:30:49.748Z,36.68
2022-08-26T22:33:23.026Z,36.77
2022-08-26T22:35:55.835Z,36.72
2022-08-26T22:38:28.962Z,36.94
2022-08-26T22:41:03.423Z,36.75
2022-08-26T22:43:39.629Z,37.03
2022-08-26T22:46:16.519Z,37.27
2022-08-26T22:48:54.032Z,37.34
2022-08-26T22:51:27.987Z,37.33
2022-08-26T22:54:00.700Z,37.26
2022-08-26T22:56:32.949Z,37.46
2022-08-26T22:59:06.855Z,37.35
2022-08-26T23:01:40.991Z,37.45
2022-08-26T23:04:13.238Z,37.52
2022-08-26T23:06:47.751Z,37.92
2022-08-26T23:09:21.126Z,37.93
2022-08-26T23:11:56.091Z,38.30
2022-08-26T23:14:28.794Z,38.19
2022-08-26T23:17:01.060Z,37.99
2022-08-26T23:19:33.274Z,38.26
2022-08-26T23:22:05.752Z,38.26
2022-08-26T23:24:37.960Z,38.29
2022-08-26T23:27:10.515Z,38.25
2022-08-26T23:29:43.112Z,38.13
2022-08-26T23:32:15.334Z,38.44
2022-08-26T23:35:00.014Z,38.64
2022-08-26T23:37:36.527Z,38.53
2022-08-26T23:40:16.265Z,38.61
2022-08-26T23:42:48.506Z,39.12
2022-08-26T23:45:22.256Z,39.00
2022-08-26T23:47:55.279Z,39.30
2022-08-26T23:50:44.304Z,39.23
2022-08-26T23:53:20.017Z,39.41
2022-08-26T23:55:54.096Z,39.67
2022-08-26T23:58:26.492Z,39.49
